sensor_id;sensor_type;location;lat;lon;timestamp;P1;durP1;ratioP1;P2;durP2;ratioP2
41633;SDS011;37274;51.150;4.808;2022-07-26T00:00:08;0.75;;;0.40;;
41633;SDS011;37274;51.150;4.808;2022-07-26T00:02:38;0.90;;;0.47;;
41633;SDS011;37274;51.150;4.808;2022-07-26T00:05:13;3.03;;;0.50;;
41633;SDS011;37274;51.150;4.808;2022-07-26T00:07:41;1.30;;;0.30;;
41633;SDS011;37274;51.150;4.808;2022-07-26T00:10:08;0.38;;;0.20;;
41633;SDS011;37274;51.150;4.808;2022-07-26T00:12:35;0.98;;;0.22;;
41633;SDS011;37274;51.150;4.808;2022-07-26T00:15:02;0.98;;;0.30;;
41633;SDS011;37274;51.150;4.808;2022-07-26T00:17:31;2.78;;;0.52;;
41633;SDS011;37274;51.150;4.808;2022-07-26T00:19:57;0.88;;;0.40;;
41633;SDS011;37274;51.150;4.808;2022-07-26T00:22:24;1.23;;;0.43;;
41633;SDS011;37274;51.150;4.808;2022-07-26T00:25:04;0.80;;;0.30;;
41633;SDS011;37274;51.150;4.808;2022-07-26T00:27:32;0.77;;;0.30;;
41633;SDS011;37274;51.150;4.808;2022-07-26T00:30:05;0.75;;;0.30;;
41633;SDS011;37274;51.150;4.808;2022-07-26T00:32:33;1.23;;;0.30;;
41633;SDS011;37274;51.150;4.808;2022-07-26T00:35:00;1.02;;;0.45;;
41633;SDS011;37274;51.150;4.808;2022-07-26T00:37:26;0.95;;;0.30;;
41633;SDS011;37274;51.150;4.808;2022-07-26T00:39:53;0.50;;;0.47;;
41633;SDS011;37274;51.150;4.808;2022-07-26T00:42:20;1.55;;;0.40;;
41633;SDS011;37274;51.150;4.808;2022-07-26T00:44:47;1.33;;;0.50;;
41633;SDS011;37274;51.150;4.808;2022-07-26T00:47:14;0.43;;;0.30;;
41633;SDS011;37274;51.150;4.808;2022-07-26T00:49:41;0.90;;;0.40;;
41633;SDS011;37274;51.150;4.808;2022-07-26T00:52:09;1.30;;;0.32;;
41633;SDS011;37274;51.150;4.808;2022-07-26T00:54:36;1.05;;;0.40;;
41633;SDS011;37274;51.150;4.808;2022-07-26T00:57:04;1.30;;;0.35;;
41633;SDS011;37274;51.150;4.808;2022-07-26T00:59:32;1.08;;;0.40;;
41633;SDS011;37274;51.150;4.808;2022-07-26T01:01:58;3.10;;;0.60;;
41633;SDS011;37274;51.150;4.808;2022-07-26T01:04:28;1.90;;;0.52;;
41633;SDS011;37274;51.150;4.808;2022-07-26T01:06:55;0.63;;;0.40;;
41633;SDS011;37274;51.150;4.808;2022-07-26T01:09:22;2.83;;;0.50;;
41633;SDS011;37274;51.150;4.808;2022-07-26T01:11:49;1.17;;;0.60;;
41633;SDS011;37274;51.150;4.808;2022-07-26T01:14:20;1.35;;;0.60;;
41633;SDS011;37274;51.150;4.808;2022-07-26T01:16:47;1.33;;;0.43;;
41633;SDS011;37274;51.150;4.808;2022-07-26T01:19:15;1.10;;;0.55;;
41633;SDS011;37274;51.150;4.808;2022-07-26T01:21:42;0.65;;;0.22;;
41633;SDS011;37274;51.150;4.808;2022-07-26T01:24:09;1.05;;;0.40;;
41633;SDS011;37274;51.150;4.808;2022-07-26T01:26:36;1.05;;;0.30;;
41633;SDS011;37274;51.150;4.808;2022-07-26T01:29:03;0.68;;;0.47;;
41633;SDS011;37274;51.150;4.808;2022-07-26T01:31:30;0.85;;;0.40;;
41633;SDS011;37274;51.150;4.808;2022-07-26T01:33:57;2.40;;;0.50;;
41633;SDS011;37274;51.150;4.808;2022-07-26T01:36:24;2.28;;;0.57;;
41633;SDS011;37274;51.150;4.808;2022-07-26T01:38:51;1.48;;;0.47;;
41633;SDS011;37274;51.150;4.808;2022-07-26T01:41:17;0.95;;;0.30;;
41633;SDS011;37274;51.150;4.808;2022-07-26T01:44:03;1.08;;;0.40;;
41633;SDS011;37274;51.150;4.808;2022-07-26T01:46:31;1.23;;;0.50;;
41633;SDS011;37274;51.150;4.808;2022-07-26T01:48:57;0.93;;;0.57;;
41633;SDS011;37274;51.150;4.808;2022-07-26T01:51:25;1.00;;;0.43;;
41633;SDS011;37274;51.150;4.808;2022-07-26T01:53:52;1.40;;;0.43;;
41633;SDS011;37274;51.150;4.808;2022-07-26T01:56:19;1.23;;;0.47;;
41633;SDS011;37274;51.150;4.808;2022-07-26T01:58:46;2.97;;;0.40;;
41633;SDS011;37274;51.150;4.808;2022-07-26T02:01:13;1.08;;;0.40;;
41633;SDS011;37274;51.150;4.808;2022-07-26T02:03:39;1.17;;;0.57;;
41633;SDS011;37274;51.150;4.808;2022-07-26T02:06:06;1.25;;;0.60;;
41633;SDS011;37274;51.150;4.808;2022-07-26T02:08:33;3.58;;;1.15;;
41633;SDS011;37274;51.150;4.808;2022-07-26T02:11:00;1.67;;;0.60;;
41633;SDS011;37274;51.150;4.808;2022-07-26T02:15:56;1.45;;;0.52;;
41633;SDS011;37274;51.150;4.808;2022-07-26T02:18:25;0.40;;;0.30;;
41633;SDS011;37274;51.150;4.808;2022-07-26T02:20:53;2.25;;;0.63;;
41633;SDS011;37274;51.150;4.808;2022-07-26T02:23:21;1.40;;;0.60;;
41633;SDS011;37274;51.150;4.808;2022-07-26T02:25:48;1.00;;;0.47;;
41633;SDS011;37274;51.150;4.808;2022-07-26T02:28:15;1.25;;;0.60;;
41633;SDS011;37274;51.150;4.808;2022-07-26T02:30:43;2.88;;;0.80;;
41633;SDS011;37274;51.150;4.808;2022-07-26T02:33:10;1.23;;;0.50;;
41633;SDS011;37274;51.150;4.808;2022-07-26T02:35:37;1.20;;;0.38;;
41633;SDS011;37274;51.150;4.808;2022-07-26T02:38:04;1.73;;;0.70;;
41633;SDS011;37274;51.150;4.808;2022-07-26T02:40:32;0.70;;;0.32;;
41633;SDS011;37274;51.150;4.808;2022-07-26T02:43:00;2.45;;;0.50;;
41633;SDS011;37274;51.150;4.808;2022-07-26T02:45:27;0.82;;;0.38;;
41633;SDS011;37274;51.150;4.808;2022-07-26T02:47:54;0.90;;;0.60;;
41633;SDS011;37274;51.150;4.808;2022-07-26T02:50:22;2.00;;;0.70;;
41633;SDS011;37274;51.150;4.808;2022-07-26T02:52:50;1.45;;;0.68;;
41633;SDS011;37274;51.150;4.808;2022-07-26T02:55:21;2.58;;;0.50;;
41633;SDS011;37274;51.150;4.808;2022-07-26T02:57:49;1.48;;;0.77;;
41633;SDS011;37274;51.150;4.808;2022-07-26T03:00:17;2.20;;;0.80;;
41633;SDS011;37274;51.150;4.808;2022-07-26T03:02:45;1.67;;;0.70;;
41633;SDS011;37274;51.150;4.808;2022-07-26T03:05:14;2.33;;;0.75;;
41633;SDS011;37274;51.150;4.808;2022-07-26T03:07:41;1.20;;;0.60;;
41633;SDS011;37274;51.150;4.808;2022-07-26T03:10:08;1.98;;;1.00;;
41633;SDS011;37274;51.150;4.808;2022-07-26T03:12:34;2.88;;;0.88;;
41633;SDS011;37274;51.150;4.808;2022-07-26T03:15:01;2.95;;;0.90;;
41633;SDS011;37274;51.150;4.808;2022-07-26T03:17:28;1.60;;;0.65;;
41633;SDS011;37274;51.150;4.808;2022-07-26T03:19:57;2.67;;;0.80;;
41633;SDS011;37274;51.150;4.808;2022-07-26T03:22:24;2.50;;;0.90;;
41633;SDS011;37274;51.150;4.808;2022-07-26T03:24:50;0.75;;;0.55;;
41633;SDS011;37274;51.150;4.808;2022-07-26T03:27:17;2.60;;;0.90;;
41633;SDS011;37274;51.150;4.808;2022-07-26T03:29:44;1.95;;;0.75;;
41633;SDS011;37274;51.150;4.808;2022-07-26T03:32:11;2.13;;;1.20;;
41633;SDS011;37274;51.150;4.808;2022-07-26T03:34:37;1.90;;;0.65;;
41633;SDS011;37274;51.150;4.808;2022-07-26T03:37:04;1.88;;;0.77;;
41633;SDS011;37274;51.150;4.808;2022-07-26T03:39:31;2.60;;;0.70;;
41633;SDS011;37274;51.150;4.808;2022-07-26T03:41:58;1.65;;;0.70;;
41633;SDS011;37274;51.150;4.808;2022-07-26T03:44:24;1.42;;;0.80;;
41633;SDS011;37274;51.150;4.808;2022-07-26T03:46:51;2.83;;;0.90;;
41633;SDS011;37274;51.150;4.808;2022-07-26T03:49:18;3.40;;;0.95;;
41633;SDS011;37274;51.150;4.808;2022-07-26T03:51:45;2.15;;;0.75;;
41633;SDS011;37274;51.150;4.808;2022-07-26T03:54:11;1.80;;;0.80;;
41633;SDS011;37274;51.150;4.808;2022-07-26T03:56:39;3.38;;;0.90;;
41633;SDS011;37274;51.150;4.808;2022-07-26T03:59:07;2.85;;;0.90;;
41633;SDS011;37274;51.150;4.808;2022-07-26T04:01:35;3.13;;;0.68;;
41633;SDS011;37274;51.150;4.808;2022-07-26T04:04:07;6.38;;;1.40;;
41633;SDS011;37274;51.150;4.808;2022-07-26T04:06:37;4.35;;;0.80;;
41633;SDS011;37274;51.150;4.808;2022-07-26T04:09:04;1.02;;;0.63;;
41633;SDS011;37274;51.150;4.808;2022-07-26T04:11:33;1.30;;;0.63;;
41633;SDS011;37274;51.150;4.808;2022-07-26T04:14:00;2.63;;;1.10;;
41633;SDS011;37274;51.150;4.808;2022-07-26T04:16:27;2.00;;;0.82;;
41633;SDS011;37274;51.150;4.808;2022-07-26T04:18:54;2.28;;;0.80;;
41633;SDS011;37274;51.150;4.808;2022-07-26T04:21:20;2.03;;;0.80;;
41633;SDS011;37274;51.150;4.808;2022-07-26T04:23:47;3.22;;;0.90;;
41633;SDS011;37274;51.150;4.808;2022-07-26T04:26:17;1.48;;;0.70;;
41633;SDS011;37274;51.150;4.808;2022-07-26T04:28:45;4.43;;;1.08;;
41633;SDS011;37274;51.150;4.808;2022-07-26T04:31:12;1.83;;;0.82;;
41633;SDS011;37274;51.150;4.808;2022-07-26T04:33:38;3.38;;;0.75;;
41633;SDS011;37274;51.150;4.808;2022-07-26T04:36:05;2.67;;;0.90;;
41633;SDS011;37274;51.150;4.808;2022-07-26T04:38:32;3.60;;;1.00;;
41633;SDS011;37274;51.150;4.808;2022-07-26T04:40:59;2.13;;;1.05;;
41633;SDS011;37274;51.150;4.808;2022-07-26T04:43:26;2.05;;;0.73;;
41633;SDS011;37274;51.150;4.808;2022-07-26T04:45:52;4.18;;;0.95;;
41633;SDS011;37274;51.150;4.808;2022-07-26T04:48:19;1.55;;;0.90;;
41633;SDS011;37274;51.150;4.808;2022-07-26T04:50:46;2.50;;;1.10;;
41633;SDS011;37274;51.150;4.808;2022-07-26T04:53:13;2.83;;;1.00;;
41633;SDS011;37274;51.150;4.808;2022-07-26T04:55:40;2.55;;;0.93;;
41633;SDS011;37274;51.150;4.808;2022-07-26T04:58:07;2.13;;;0.80;;
41633;SDS011;37274;51.150;4.808;2022-07-26T05:00:34;2.47;;;0.70;;
41633;SDS011;37274;51.150;4.808;2022-07-26T05:03:21;1.98;;;0.82;;
41633;SDS011;37274;51.150;4.808;2022-07-26T05:05:50;3.45;;;0.82;;
41633;SDS011;37274;51.150;4.808;2022-07-26T05:08:17;2.50;;;1.17;;
41633;SDS011;37274;51.150;4.808;2022-07-26T05:10:44;3.40;;;1.30;;
41633;SDS011;37274;51.150;4.808;2022-07-26T05:13:11;3.80;;;1.10;;
41633;SDS011;37274;51.150;4.808;2022-07-26T05:15:37;4.05;;;1.00;;
41633;SDS011;37274;51.150;4.808;2022-07-26T05:18:08;3.90;;;1.48;;
41633;SDS011;37274;51.150;4.808;2022-07-26T05:20:39;3.92;;;1.20;;
41633;SDS011;37274;51.150;4.808;2022-07-26T05:23:05;3.42;;;1.40;;
41633;SDS011;37274;51.150;4.808;2022-07-26T05:25:32;3.33;;;1.52;;
41633;SDS011;37274;51.150;4.808;2022-07-26T05:27:59;4.07;;;1.55;;
41633;SDS011;37274;51.150;4.808;2022-07-26T05:30:26;7.07;;;1.30;;
41633;SDS011;37274;51.150;4.808;2022-07-26T05:32:53;5.07;;;2.05;;
41633;SDS011;37274;51.150;4.808;2022-07-26T05:35:20;3.17;;;1.50;;
41633;SDS011;37274;51.150;4.808;2022-07-26T05:37:47;3.70;;;1.70;;
41633;SDS011;37274;51.150;4.808;2022-07-26T05:40:14;6.35;;;1.83;;
41633;SDS011;37274;51.150;4.808;2022-07-26T05:42:40;7.47;;;2.40;;
41633;SDS011;37274;51.150;4.808;2022-07-26T05:45:07;7.88;;;2.10;;
41633;SDS011;37274;51.150;4.808;2022-07-26T05:47:35;7.88;;;2.60;;
41633;SDS011;37274;51.150;4.808;2022-07-26T05:50:02;7.75;;;2.35;;
41633;SDS011;37274;51.150;4.808;2022-07-26T05:52:29;23.95;;;5.00;;
41633;SDS011;37274;51.150;4.808;2022-07-26T05:54:56;6.13;;;2.75;;
41633;SDS011;37274;51.150;4.808;2022-07-26T05:57:23;7.45;;;2.70;;
41633;SDS011;37274;51.150;4.808;2022-07-26T05:59:50;7.07;;;2.47;;
41633;SDS011;37274;51.150;4.808;2022-07-26T06:02:17;7.63;;;3.03;;
41633;SDS011;37274;51.150;4.808;2022-07-26T06:04:43;7.25;;;2.58;;
41633;SDS011;37274;51.150;4.808;2022-07-26T06:07:12;6.38;;;2.30;;
41633;SDS011;37274;51.150;4.808;2022-07-26T06:09:39;7.68;;;2.72;;
41633;SDS011;37274;51.150;4.808;2022-07-26T06:12:06;5.90;;;2.05;;
41633;SDS011;37274;51.150;4.808;2022-07-26T06:14:33;4.18;;;2.10;;
41633;SDS011;37274;51.150;4.808;2022-07-26T06:17:00;12.57;;;2.92;;
41633;SDS011;37274;51.150;4.808;2022-07-26T06:19:29;8.52;;;2.55;;
41633;SDS011;37274;51.150;4.808;2022-07-26T06:21:56;7.43;;;2.00;;
41633;SDS011;37274;51.150;4.808;2022-07-26T06:24:23;5.28;;;2.25;;
41633;SDS011;37274;51.150;4.808;2022-07-26T06:26:50;9.15;;;1.88;;
41633;SDS011;37274;51.150;4.808;2022-07-26T06:29:22;6.75;;;2.20;;
41633;SDS011;37274;51.150;4.808;2022-07-26T06:31:57;4.20;;;1.45;;
41633;SDS011;37274;51.150;4.808;2022-07-26T06:34:24;4.80;;;1.52;;
41633;SDS011;37274;51.150;4.808;2022-07-26T06:36:51;9.98;;;2.00;;
41633;SDS011;37274;51.150;4.808;2022-07-26T06:39:18;5.70;;;1.65;;
41633;SDS011;37274;51.150;4.808;2022-07-26T06:41:44;2.45;;;1.45;;
41633;SDS011;37274;51.150;4.808;2022-07-26T06:44:11;6.35;;;1.92;;
41633;SDS011;37274;51.150;4.808;2022-07-26T06:46:38;3.50;;;1.25;;
41633;SDS011;37274;51.150;4.808;2022-07-26T06:49:05;3.85;;;1.50;;
41633;SDS011;37274;51.150;4.808;2022-07-26T06:51:32;5.63;;;1.88;;
41633;SDS011;37274;51.150;4.808;2022-07-26T06:53:59;4.35;;;1.58;;
41633;SDS011;37274;51.150;4.808;2022-07-26T06:56:26;3.90;;;1.42;;
41633;SDS011;37274;51.150;4.808;2022-07-26T06:58:53;5.88;;;2.17;;
41633;SDS011;37274;51.150;4.808;2022-07-26T07:01:21;4.07;;;1.58;;
41633;SDS011;37274;51.150;4.808;2022-07-26T07:04:08;3.63;;;1.35;;
41633;SDS011;37274;51.150;4.808;2022-07-26T07:06:35;6.53;;;1.50;;
41633;SDS011;37274;51.150;4.808;2022-07-26T07:09:03;5.90;;;1.45;;
41633;SDS011;37274;51.150;4.808;2022-07-26T07:11:33;3.97;;;1.65;;
41633;SDS011;37274;51.150;4.808;2022-07-26T07:14:00;3.72;;;1.27;;
41633;SDS011;37274;51.150;4.808;2022-07-26T07:16:28;4.85;;;1.92;;
41633;SDS011;37274;51.150;4.808;2022-07-26T07:18:55;3.85;;;1.48;;
41633;SDS011;37274;51.150;4.808;2022-07-26T07:21:22;4.85;;;1.80;;
41633;SDS011;37274;51.150;4.808;2022-07-26T07:23:49;2.75;;;1.30;;
41633;SDS011;37274;51.150;4.808;2022-07-26T07:26:17;3.90;;;1.73;;
41633;SDS011;37274;51.150;4.808;2022-07-26T07:28:45;5.53;;;1.25;;
41633;SDS011;37274;51.150;4.808;2022-07-26T07:31:13;3.42;;;1.33;;
41633;SDS011;37274;51.150;4.808;2022-07-26T07:33:40;5.78;;;1.50;;
41633;SDS011;37274;51.150;4.808;2022-07-26T07:36:18;4.65;;;1.23;;
41633;SDS011;37274;51.150;4.808;2022-07-26T07:38:46;9.93;;;1.75;;
41633;SDS011;37274;51.150;4.808;2022-07-26T07:41:13;8.82;;;1.70;;
41633;SDS011;37274;51.150;4.808;2022-07-26T07:43:40;7.18;;;1.77;;
41633;SDS011;37274;51.150;4.808;2022-07-26T07:46:06;3.80;;;1.30;;
41633;SDS011;37274;51.150;4.808;2022-07-26T07:48:33;5.60;;;1.23;;
41633;SDS011;37274;51.150;4.808;2022-07-26T07:51:00;5.03;;;1.02;;
41633;SDS011;37274;51.150;4.808;2022-07-26T07:53:27;2.67;;;1.25;;
41633;SDS011;37274;51.150;4.808;2022-07-26T07:55:56;8.25;;;1.17;;
41633;SDS011;37274;51.150;4.808;2022-07-26T07:58:23;3.22;;;1.15;;
41633;SDS011;37274;51.150;4.808;2022-07-26T08:00:53;2.72;;;1.05;;
41633;SDS011;37274;51.150;4.808;2022-07-26T08:03:20;4.22;;;1.00;;
41633;SDS011;37274;51.150;4.808;2022-07-26T08:05:47;2.20;;;0.88;;
41633;SDS011;37274;51.150;4.808;2022-07-26T08:08:18;2.75;;;1.15;;
41633;SDS011;37274;51.150;4.808;2022-07-26T08:10:48;2.42;;;0.80;;
41633;SDS011;37274;51.150;4.808;2022-07-26T08:13:17;3.45;;;1.05;;
41633;SDS011;37274;51.150;4.808;2022-07-26T08:15:47;2.80;;;0.90;;
41633;SDS011;37274;51.150;4.808;2022-07-26T08:18:17;2.08;;;0.85;;
41633;SDS011;37274;51.150;4.808;2022-07-26T08:20:48;2.25;;;1.02;;
41633;SDS011;37274;51.150;4.808;2022-07-26T08:23:16;2.45;;;0.90;;
41633;SDS011;37274;51.150;4.808;2022-07-26T08:25:42;3.15;;;1.10;;
41633;SDS011;37274;51.150;4.808;2022-07-26T08:28:22;5.22;;;0.98;;
41633;SDS011;37274;51.150;4.808;2022-07-26T08:31:09;3.47;;;1.17;;
41633;SDS011;37274;51.150;4.808;2022-07-26T08:33:36;1.98;;;0.73;;
41633;SDS011;37274;51.150;4.808;2022-07-26T08:36:11;4.65;;;0.85;;
41633;SDS011;37274;51.150;4.808;2022-07-26T08:38:39;3.35;;;0.73;;
41633;SDS011;37274;51.150;4.808;2022-07-26T08:41:05;4.00;;;1.40;;
41633;SDS011;37274;51.150;4.808;2022-07-26T08:43:33;1.70;;;0.63;;
41633;SDS011;37274;51.150;4.808;2022-07-26T08:46:16;1.67;;;0.90;;
41633;SDS011;37274;51.150;4.808;2022-07-26T08:48:50;2.38;;;1.13;;
41633;SDS011;37274;51.150;4.808;2022-07-26T08:51:17;1.65;;;0.68;;
41633;SDS011;37274;51.150;4.808;2022-07-26T08:53:46;1.40;;;0.60;;
41633;SDS011;37274;51.150;4.808;2022-07-26T08:56:13;4.70;;;1.10;;
41633;SDS011;37274;51.150;4.808;2022-07-26T08:58:39;1.25;;;0.60;;
41633;SDS011;37274;51.150;4.808;2022-07-26T09:01:09;2.90;;;1.33;;
41633;SDS011;37274;51.150;4.808;2022-07-26T09:03:39;2.53;;;0.90;;
41633;SDS011;37274;51.150;4.808;2022-07-26T09:08:45;1.85;;;0.70;;
41633;SDS011;37274;51.150;4.808;2022-07-26T09:13:53;3.08;;;0.73;;
41633;SDS011;37274;51.150;4.808;2022-07-26T09:16:21;2.67;;;0.73;;
41633;SDS011;37274;51.150;4.808;2022-07-26T09:18:49;3.22;;;0.57;;
41633;SDS011;37274;51.150;4.808;2022-07-26T09:21:28;3.13;;;1.10;;
41633;SDS011;37274;51.150;4.808;2022-07-26T09:23:59;1.30;;;0.77;;
41633;SDS011;37274;51.150;4.808;2022-07-26T09:26:26;1.92;;;0.90;;
41633;SDS011;37274;51.150;4.808;2022-07-26T09:29:14;1.85;;;0.60;;
41633;SDS011;37274;51.150;4.808;2022-07-26T09:34:07;2.58;;;0.90;;
41633;SDS011;37274;51.150;4.808;2022-07-26T09:36:48;1.50;;;0.60;;
41633;SDS011;37274;51.150;4.808;2022-07-26T09:39:19;2.88;;;0.70;;
41633;SDS011;37274;51.150;4.808;2022-07-26T09:42:05;1.58;;;0.60;;
41633;SDS011;37274;51.150;4.808;2022-07-26T09:44:53;3.30;;;0.80;;
41633;SDS011;37274;51.150;4.808;2022-07-26T09:47:20;1.52;;;0.40;;
41633;SDS011;37274;51.150;4.808;2022-07-26T09:49:47;1.35;;;0.40;;
41633;SDS011;37274;51.150;4.808;2022-07-26T09:52:15;0.80;;;0.43;;
41633;SDS011;37274;51.150;4.808;2022-07-26T09:54:47;1.58;;;0.75;;
41633;SDS011;37274;51.150;4.808;2022-07-26T09:57:15;1.08;;;0.57;;
41633;SDS011;37274;51.150;4.808;2022-07-26T09:59:43;3.13;;;0.80;;
41633;SDS011;37274;51.150;4.808;2022-07-26T10:02:10;1.23;;;0.55;;
41633;SDS011;37274;51.150;4.808;2022-07-26T10:04:42;1.25;;;0.50;;
41633;SDS011;37274;51.150;4.808;2022-07-26T10:07:09;3.08;;;0.60;;
41633;SDS011;37274;51.150;4.808;2022-07-26T10:09:38;3.47;;;0.82;;
41633;SDS011;37274;51.150;4.808;2022-07-26T10:12:08;2.17;;;0.65;;
41633;SDS011;37274;51.150;4.808;2022-07-26T10:14:43;1.38;;;0.70;;
41633;SDS011;37274;51.150;4.808;2022-07-26T10:22:25;2.03;;;0.47;;
41633;SDS011;37274;51.150;4.808;2022-07-26T10:33:06;2.38;;;0.75;;
41633;SDS011;37274;51.150;4.808;2022-07-26T10:38:00;1.08;;;0.43;;
41633;SDS011;37274;51.150;4.808;2022-07-26T10:40:29;0.93;;;0.43;;
41633;SDS011;37274;51.150;4.808;2022-07-26T10:43:05;1.00;;;0.63;;
41633;SDS011;37274;51.150;4.808;2022-07-26T10:48:54;1.00;;;0.40;;
41633;SDS011;37274;51.150;4.808;2022-07-26T10:51:30;2.78;;;0.50;;
41633;SDS011;37274;51.150;4.808;2022-07-26T10:54:05;0.77;;;0.52;;
41633;SDS011;37274;51.150;4.808;2022-07-26T10:56:34;3.17;;;0.82;;
41633;SDS011;37274;51.150;4.808;2022-07-26T10:59:02;0.80;;;0.40;;
41633;SDS011;37274;51.150;4.808;2022-07-26T11:01:36;0.95;;;0.47;;
41633;SDS011;37274;51.150;4.808;2022-07-26T11:04:17;1.50;;;0.55;;
41633;SDS011;37274;51.150;4.808;2022-07-26T11:06:44;2.95;;;1.00;;
41633;SDS011;37274;51.150;4.808;2022-07-26T11:09:11;2.30;;;0.50;;
41633;SDS011;37274;51.150;4.808;2022-07-26T11:11:38;1.30;;;0.40;;
41633;SDS011;37274;51.150;4.808;2022-07-26T11:14:13;1.10;;;0.50;;
41633;SDS011;37274;51.150;4.808;2022-07-26T11:19:18;1.10;;;0.47;;
41633;SDS011;37274;51.150;4.808;2022-07-26T11:21:45;1.58;;;0.47;;
41633;SDS011;37274;51.150;4.808;2022-07-26T11:24:20;0.95;;;0.30;;
41633;SDS011;37274;51.150;4.808;2022-07-26T11:26:47;2.65;;;0.50;;
41633;SDS011;37274;51.150;4.808;2022-07-26T11:29:24;1.55;;;0.30;;
41633;SDS011;37274;51.150;4.808;2022-07-26T11:32:05;3.05;;;0.82;;
41633;SDS011;37274;51.150;4.808;2022-07-26T11:34:42;1.95;;;0.50;;
41633;SDS011;37274;51.150;4.808;2022-07-26T11:37:10;1.02;;;0.50;;
41633;SDS011;37274;51.150;4.808;2022-07-26T11:39:37;1.17;;;0.40;;
41633;SDS011;37274;51.150;4.808;2022-07-26T11:42:06;0.50;;;0.20;;
41633;SDS011;37274;51.150;4.808;2022-07-26T11:44:37;0.88;;;0.52;;
41633;SDS011;37274;51.150;4.808;2022-07-26T11:47:10;1.17;;;0.40;;
41633;SDS011;37274;51.150;4.808;2022-07-26T11:49:38;1.33;;;0.50;;
41633;SDS011;37274;51.150;4.808;2022-07-26T11:52:29;1.52;;;0.52;;
41633;SDS011;37274;51.150;4.808;2022-07-26T11:54:57;1.38;;;0.47;;
41633;SDS011;37274;51.150;4.808;2022-07-26T11:57:28;1.05;;;0.40;;
41633;SDS011;37274;51.150;4.808;2022-07-26T11:59:56;0.80;;;0.40;;
41633;SDS011;37274;51.150;4.808;2022-07-26T12:02:23;1.08;;;0.40;;
41633;SDS011;37274;51.150;4.808;2022-07-26T12:05:05;0.90;;;0.22;;
41633;SDS011;37274;51.150;4.808;2022-07-26T12:07:50;0.57;;;0.25;;
41633;SDS011;37274;51.150;4.808;2022-07-26T12:10:24;0.68;;;0.22;;
41633;SDS011;37274;51.150;4.808;2022-07-26T12:13:11;1.02;;;0.40;;
41633;SDS011;37274;51.150;4.808;2022-07-26T12:15:42;0.63;;;0.30;;
41633;SDS011;37274;51.150;4.808;2022-07-26T12:18:10;0.25;;;0.25;;
41633;SDS011;37274;51.150;4.808;2022-07-26T12:20:37;0.77;;;0.30;;
41633;SDS011;37274;51.150;4.808;2022-07-26T12:23:05;0.52;;;0.35;;
41633;SDS011;37274;51.150;4.808;2022-07-26T12:25:32;0.35;;;0.28;;
41633;SDS011;37274;51.150;4.808;2022-07-26T12:28:10;0.20;;;0.20;;
41633;SDS011;37274;51.150;4.808;2022-07-26T12:30:37;1.33;;;0.85;;
41633;SDS011;37274;51.150;4.808;2022-07-26T12:33:03;0.20;;;0.20;;
41633;SDS011;37274;51.150;4.808;2022-07-26T12:35:31;0.95;;;0.30;;
41633;SDS011;37274;51.150;4.808;2022-07-26T12:38:00;0.63;;;0.30;;
41633;SDS011;37274;51.150;4.808;2022-07-26T12:40:28;0.22;;;0.22;;
41633;SDS011;37274;51.150;4.808;2022-07-26T12:42:59;0.90;;;0.40;;
41633;SDS011;37274;51.150;4.808;2022-07-26T12:45:31;0.40;;;0.30;;
41633;SDS011;37274;51.150;4.808;2022-07-26T12:48:00;0.50;;;0.25;;
41633;SDS011;37274;51.150;4.808;2022-07-26T12:50:28;0.40;;;0.30;;
41633;SDS011;37274;51.150;4.808;2022-07-26T12:55:38;0.47;;;0.20;;
41633;SDS011;37274;51.150;4.808;2022-07-26T12:58:04;0.75;;;0.25;;
41633;SDS011;37274;51.150;4.808;2022-07-26T13:00:31;0.85;;;0.38;;
41633;SDS011;37274;51.150;4.808;2022-07-26T13:02:58;0.30;;;0.30;;
41633;SDS011;37274;51.150;4.808;2022-07-26T13:05:25;0.80;;;0.20;;
41633;SDS011;37274;51.150;4.808;2022-07-26T13:07:51;1.02;;;0.20;;
41633;SDS011;37274;51.150;4.808;2022-07-26T13:10:19;0.30;;;0.22;;
41633;SDS011;37274;51.150;4.808;2022-07-26T13:13:02;1.42;;;0.40;;
41633;SDS011;37274;51.150;4.808;2022-07-26T13:15:29;2.60;;;0.43;;
41633;SDS011;37274;51.150;4.808;2022-07-26T13:18:05;1.15;;;0.30;;
41633;SDS011;37274;51.150;4.808;2022-07-26T13:20:36;1.50;;;0.35;;
41633;SDS011;37274;51.150;4.808;2022-07-26T13:23:04;0.55;;;0.25;;
41633;SDS011;37274;51.150;4.808;2022-07-26T13:25:31;0.43;;;0.22;;
41633;SDS011;37274;51.150;4.808;2022-07-26T13:28:05;2.88;;;0.60;;
41633;SDS011;37274;51.150;4.808;2022-07-26T13:30:34;0.50;;;0.30;;
41633;SDS011;37274;51.150;4.808;2022-07-26T13:33:02;0.85;;;0.20;;
41633;SDS011;37274;51.150;4.808;2022-07-26T13:35:29;1.08;;;0.40;;
41633;SDS011;37274;51.150;4.808;2022-07-26T13:37:56;2.30;;;0.40;;
41633;SDS011;37274;51.150;4.808;2022-07-26T13:40:23;2.63;;;0.30;;
41633;SDS011;37274;51.150;4.808;2022-07-26T13:42:56;1.15;;;0.30;;
41633;SDS011;37274;51.150;4.808;2022-07-26T13:45:23;0.75;;;0.20;;
41633;SDS011;37274;51.150;4.808;2022-07-26T13:47:54;0.20;;;0.15;;
41633;SDS011;37274;51.150;4.808;2022-07-26T13:50:21;0.17;;;0.10;;
41633;SDS011;37274;51.150;4.808;2022-07-26T13:52:48;0.93;;;0.30;;
41633;SDS011;37274;51.150;4.808;2022-07-26T13:55:14;0.40;;;0.30;;
41633;SDS011;37274;51.150;4.808;2022-07-26T13:57:41;0.75;;;0.30;;
41633;SDS011;37274;51.150;4.808;2022-07-26T14:00:22;3.03;;;0.40;;
41633;SDS011;37274;51.150;4.808;2022-07-26T14:02:50;1.10;;;0.25;;
41633;SDS011;37274;51.150;4.808;2022-07-26T14:05:17;0.30;;;0.30;;
41633;SDS011;37274;51.150;4.808;2022-07-26T14:07:44;2.20;;;0.35;;
41633;SDS011;37274;51.150;4.808;2022-07-26T14:10:10;0.43;;;0.30;;
41633;SDS011;37274;51.150;4.808;2022-07-26T14:12:37;1.08;;;0.47;;
41633;SDS011;37274;51.150;4.808;2022-07-26T14:15:06;0.50;;;0.32;;
41633;SDS011;37274;51.150;4.808;2022-07-26T14:17:41;0.43;;;0.30;;
41633;SDS011;37274;51.150;4.808;2022-07-26T14:20:08;14.25;;;0.63;;
41633;SDS011;37274;51.150;4.808;2022-07-26T14:22:35;2.88;;;0.40;;
41633;SDS011;37274;51.150;4.808;2022-07-26T14:25:02;1.55;;;0.60;;
41633;SDS011;37274;51.150;4.808;2022-07-26T14:27:29;1.55;;;0.40;;
41633;SDS011;37274;51.150;4.808;2022-07-26T14:29:55;1.17;;;0.50;;
41633;SDS011;37274;51.150;4.808;2022-07-26T14:32:22;0.43;;;0.20;;
41633;SDS011;37274;51.150;4.808;2022-07-26T14:34:49;0.60;;;0.50;;
41633;SDS011;37274;51.150;4.808;2022-07-26T14:37:16;1.90;;;0.40;;
41633;SDS011;37274;51.150;4.808;2022-07-26T14:40:03;1.70;;;0.50;;
41633;SDS011;37274;51.150;4.808;2022-07-26T14:42:31;2.88;;;0.50;;
41633;SDS011;37274;51.150;4.808;2022-07-26T14:44:58;0.95;;;0.60;;
41633;SDS011;37274;51.150;4.808;2022-07-26T14:47:25;2.63;;;0.70;;
41633;SDS011;37274;51.150;4.808;2022-07-26T14:49:52;2.00;;;0.50;;
41633;SDS011;37274;51.150;4.808;2022-07-26T14:52:18;1.45;;;0.30;;
41633;SDS011;37274;51.150;4.808;2022-07-26T14:54:45;2.55;;;0.80;;
41633;SDS011;37274;51.150;4.808;2022-07-26T14:57:12;1.02;;;0.50;;
41633;SDS011;37274;51.150;4.808;2022-07-26T14:59:38;4.13;;;0.60;;
41633;SDS011;37274;51.150;4.808;2022-07-26T15:02:05;1.90;;;0.47;;
41633;SDS011;37274;51.150;4.808;2022-07-26T15:04:32;1.80;;;0.60;;
41633;SDS011;37274;51.150;4.808;2022-07-26T15:06:59;2.17;;;0.38;;
41633;SDS011;37274;51.150;4.808;2022-07-26T15:09:25;1.58;;;0.40;;
41633;SDS011;37274;51.150;4.808;2022-07-26T15:11:52;0.68;;;0.30;;
41633;SDS011;37274;51.150;4.808;2022-07-26T15:14:19;0.63;;;0.30;;
41633;SDS011;37274;51.150;4.808;2022-07-26T15:16:46;3.10;;;0.77;;
41633;SDS011;37274;51.150;4.808;2022-07-26T15:19:12;1.05;;;0.50;;
41633;SDS011;37274;51.150;4.808;2022-07-26T15:21:39;1.73;;;0.60;;
41633;SDS011;37274;51.150;4.808;2022-07-26T15:24:06;4.57;;;0.82;;
41633;SDS011;37274;51.150;4.808;2022-07-26T15:26:35;2.50;;;0.90;;
41633;SDS011;37274;51.150;4.808;2022-07-26T15:29:01;4.43;;;1.75;;
41633;SDS011;37274;51.150;4.808;2022-07-26T15:31:29;7.85;;;2.03;;